Harrisburg, Arkansas
Current Conditions -  °F | °C
As of 2:53 AM on Monday 24 Nov 2014 (Local Time) from KJBR Reporting Station
Overcast Overcast  
Wind Chill: 51°   Ceiling: 2300
Heat Index: 51°   Visibility: 10mi
Dew Point: 45°   Wind: 24mph
Humidity: 80%   Direction: 280°W
Pressure: 29.48"   Gusts: 33mph
Location:  35.56°N, 90.72°W
Report Text: KJBR 240853Z AUTO 28021G29KT 10SM BKN023 OVC035 11/07 A2948 RMK AO2 PK WND 26037/0811 SLP980 T01060072 53044 $
Loading
Personal Weather Stations






























Interactive Weather Map New forecast layout! Learn more

10-Day Weather Forecast

Advertisements
Track Severe Weather on mobile